sensor_id;sensor_type;location;lat;lon;timestamp;P1;durP1;ratioP1;P2;durP2;ratioP2
16577;SDS011;8401;52.528;13.340;2024-01-15T00:01:49;13.20;;;8.07;;
16577;SDS011;8401;52.528;13.340;2024-01-15T00:04:15;13.90;;;8.03;;
16577;SDS011;8401;52.528;13.340;2024-01-15T00:06:40;13.90;;;9.30;;
16577;SDS011;8401;52.528;13.340;2024-01-15T00:09:06;11.90;;;7.13;;
16577;SDS011;8401;52.528;13.340;2024-01-15T00:11:32;12.77;;;7.40;;
16577;SDS011;8401;52.528;13.340;2024-01-15T00:13:58;13.97;;;8.33;;
16577;SDS011;8401;52.528;13.340;2024-01-15T00:16:23;13.57;;;7.87;;
16577;SDS011;8401;52.528;13.340;2024-01-15T00:18:49;13.17;;;7.80;;
16577;SDS011;8401;52.528;13.340;2024-01-15T00:21:15;12.53;;;7.90;;
16577;SDS011;8401;52.528;13.340;2024-01-15T00:23:43;13.00;;;7.97;;
16577;SDS011;8401;52.528;13.340;2024-01-15T00:26:09;12.40;;;7.07;;
16577;SDS011;8401;52.528;13.340;2024-01-15T00:28:36;12.07;;;7.10;;
16577;SDS011;8401;52.528;13.340;2024-01-15T00:31:02;14.00;;;8.23;;
16577;SDS011;8401;52.528;13.340;2024-01-15T00:33:28;12.93;;;7.37;;
16577;SDS011;8401;52.528;13.340;2024-01-15T00:35:54;10.70;;;6.17;;
16577;SDS011;8401;52.528;13.340;2024-01-15T00:38:19;11.50;;;7.70;;
16577;SDS011;8401;52.528;13.340;2024-01-15T00:40:45;12.00;;;7.60;;
16577;SDS011;8401;52.528;13.340;2024-01-15T00:43:11;10.87;;;6.97;;
16577;SDS011;8401;52.528;13.340;2024-01-15T00:45:36;11.60;;;7.07;;
16577;SDS011;8401;52.528;13.340;2024-01-15T00:48:02;12.50;;;7.60;;
16577;SDS011;8401;52.528;13.340;2024-01-15T00:50:28;12.67;;;7.53;;
16577;SDS011;8401;52.528;13.340;2024-01-15T00:52:54;13.50;;;7.43;;
16577;SDS011;8401;52.528;13.340;2024-01-15T00:55:20;11.73;;;6.97;;
16577;SDS011;8401;52.528;13.340;2024-01-15T00:57:45;12.80;;;7.27;;
16577;SDS011;8401;52.528;13.340;2024-01-15T01:00:11;11.80;;;7.70;;
16577;SDS011;8401;52.528;13.340;2024-01-15T01:02:37;13.10;;;7.43;;
16577;SDS011;8401;52.528;13.340;2024-01-15T01:05:03;10.60;;;6.83;;
16577;SDS011;8401;52.528;13.340;2024-01-15T01:07:29;11.77;;;7.60;;
16577;SDS011;8401;52.528;13.340;2024-01-15T01:09:54;13.37;;;8.47;;
16577;SDS011;8401;52.528;13.340;2024-01-15T01:12:20;11.77;;;7.50;;
16577;SDS011;8401;52.528;13.340;2024-01-15T01:14:46;11.67;;;7.27;;
16577;SDS011;8401;52.528;13.340;2024-01-15T01:17:11;12.27;;;6.50;;
16577;SDS011;8401;52.528;13.340;2024-01-15T01:19:37;12.07;;;7.33;;
16577;SDS011;8401;52.528;13.340;2024-01-15T01:22:03;14.00;;;7.87;;
16577;SDS011;8401;52.528;13.340;2024-01-15T01:24:28;15.77;;;8.40;;
16577;SDS011;8401;52.528;13.340;2024-01-15T01:26:54;14.17;;;8.77;;
16577;SDS011;8401;52.528;13.340;2024-01-15T01:29:20;14.40;;;7.70;;
16577;SDS011;8401;52.528;13.340;2024-01-15T01:31:45;13.87;;;8.33;;
16577;SDS011;8401;52.528;13.340;2024-01-15T01:34:13;15.87;;;8.77;;
16577;SDS011;8401;52.528;13.340;2024-01-15T01:36:40;12.67;;;8.20;;
16577;SDS011;8401;52.528;13.340;2024-01-15T01:39:06;14.93;;;8.00;;
16577;SDS011;8401;52.528;13.340;2024-01-15T01:41:32;14.10;;;8.83;;
16577;SDS011;8401;52.528;13.340;2024-01-15T01:43:57;14.20;;;7.83;;
16577;SDS011;8401;52.528;13.340;2024-01-15T01:46:23;13.47;;;8.00;;
16577;SDS011;8401;52.528;13.340;2024-01-15T01:48:51;12.57;;;7.83;;
16577;SDS011;8401;52.528;13.340;2024-01-15T01:51:17;15.03;;;8.30;;
16577;SDS011;8401;52.528;13.340;2024-01-15T01:53:44;15.17;;;8.50;;
16577;SDS011;8401;52.528;13.340;2024-01-15T01:56:10;13.90;;;8.33;;
16577;SDS011;8401;52.528;13.340;2024-01-15T01:58:37;13.90;;;8.40;;
16577;SDS011;8401;52.528;13.340;2024-01-15T02:01:03;15.40;;;8.03;;
16577;SDS011;8401;52.528;13.340;2024-01-15T02:03:30;16.63;;;8.17;;
16577;SDS011;8401;52.528;13.340;2024-01-15T02:05:56;14.60;;;8.33;;
16577;SDS011;8401;52.528;13.340;2024-01-15T02:08:22;13.63;;;8.00;;
16577;SDS011;8401;52.528;13.340;2024-01-15T02:10:48;17.43;;;8.03;;
16577;SDS011;8401;52.528;13.340;2024-01-15T02:13:13;14.70;;;8.23;;
16577;SDS011;8401;52.528;13.340;2024-01-15T02:15:39;14.63;;;8.03;;
16577;SDS011;8401;52.528;13.340;2024-01-15T02:18:06;13.30;;;7.20;;
16577;SDS011;8401;52.528;13.340;2024-01-15T02:20:33;13.97;;;6.67;;
16577;SDS011;8401;52.528;13.340;2024-01-15T02:23:07;10.93;;;6.50;;
16577;SDS011;8401;52.528;13.340;2024-01-15T02:25:38;10.73;;;6.53;;
16577;SDS011;8401;52.528;13.340;2024-01-15T02:28:05;13.53;;;7.57;;
16577;SDS011;8401;52.528;13.340;2024-01-15T02:30:32;10.57;;;5.77;;
16577;SDS011;8401;52.528;13.340;2024-01-15T02:33:03;10.50;;;6.23;;
16577;SDS011;8401;52.528;13.340;2024-01-15T02:35:28;11.77;;;6.10;;
16577;SDS011;8401;52.528;13.340;2024-01-15T02:37:54;11.70;;;5.77;;
16577;SDS011;8401;52.528;13.340;2024-01-15T02:40:20;11.10;;;5.70;;
16577;SDS011;8401;52.528;13.340;2024-01-15T02:42:45;10.10;;;5.50;;
16577;SDS011;8401;52.528;13.340;2024-01-15T02:45:11;10.27;;;5.03;;
16577;SDS011;8401;52.528;13.340;2024-01-15T02:47:36;9.07;;;5.63;;
16577;SDS011;8401;52.528;13.340;2024-01-15T02:50:02;9.20;;;5.37;;
16577;SDS011;8401;52.528;13.340;2024-01-15T02:52:28;8.63;;;5.40;;
16577;SDS011;8401;52.528;13.340;2024-01-15T02:54:53;10.43;;;5.73;;
16577;SDS011;8401;52.528;13.340;2024-01-15T02:57:19;10.17;;;5.70;;
16577;SDS011;8401;52.528;13.340;2024-01-15T02:59:44;7.87;;;4.93;;
16577;SDS011;8401;52.528;13.340;2024-01-15T03:02:10;10.50;;;5.43;;
16577;SDS011;8401;52.528;13.340;2024-01-15T03:04:36;8.33;;;4.70;;
16577;SDS011;8401;52.528;13.340;2024-01-15T03:07:01;12.73;;;5.63;;
16577;SDS011;8401;52.528;13.340;2024-01-15T03:09:27;8.63;;;4.90;;
16577;SDS011;8401;52.528;13.340;2024-01-15T03:11:53;9.87;;;5.10;;
16577;SDS011;8401;52.528;13.340;2024-01-15T03:14:18;9.67;;;5.23;;
16577;SDS011;8401;52.528;13.340;2024-01-15T03:16:45;8.07;;;4.97;;
16577;SDS011;8401;52.528;13.340;2024-01-15T03:19:11;8.87;;;5.00;;
16577;SDS011;8401;52.528;13.340;2024-01-15T03:21:36;9.87;;;5.43;;
16577;SDS011;8401;52.528;13.340;2024-01-15T03:24:02;9.63;;;5.87;;
16577;SDS011;8401;52.528;13.340;2024-01-15T03:26:28;8.90;;;5.00;;
16577;SDS011;8401;52.528;13.340;2024-01-15T03:28:53;9.50;;;5.43;;
16577;SDS011;8401;52.528;13.340;2024-01-15T03:31:19;17.07;;;4.93;;
16577;SDS011;8401;52.528;13.340;2024-01-15T03:33:44;11.27;;;5.50;;
16577;SDS011;8401;52.528;13.340;2024-01-15T03:36:10;9.03;;;4.70;;
16577;SDS011;8401;52.528;13.340;2024-01-15T03:38:38;10.33;;;4.93;;
16577;SDS011;8401;52.528;13.340;2024-01-15T03:41:07;9.73;;;4.90;;
16577;SDS011;8401;52.528;13.340;2024-01-15T03:43:33;7.70;;;4.40;;
16577;SDS011;8401;52.528;13.340;2024-01-15T03:45:59;9.97;;;4.77;;
16577;SDS011;8401;52.528;13.340;2024-01-15T03:48:24;9.37;;;4.97;;
16577;SDS011;8401;52.528;13.340;2024-01-15T03:50:50;7.47;;;4.13;;
16577;SDS011;8401;52.528;13.340;2024-01-15T03:53:15;10.63;;;5.37;;
16577;SDS011;8401;52.528;13.340;2024-01-15T03:55:41;8.27;;;4.07;;
16577;SDS011;8401;52.528;13.340;2024-01-15T03:58:07;12.27;;;4.73;;
16577;SDS011;8401;52.528;13.340;2024-01-15T04:00:34;7.97;;;4.33;;
16577;SDS011;8401;52.528;13.340;2024-01-15T04:02:59;10.47;;;4.53;;
16577;SDS011;8401;52.528;13.340;2024-01-15T04:05:25;7.63;;;4.20;;
16577;SDS011;8401;52.528;13.340;2024-01-15T04:07:51;8.50;;;4.03;;
16577;SDS011;8401;52.528;13.340;2024-01-15T04:10:16;9.87;;;4.83;;
16577;SDS011;8401;52.528;13.340;2024-01-15T04:12:42;9.13;;;4.10;;
16577;SDS011;8401;52.528;13.340;2024-01-15T04:15:08;11.33;;;4.23;;
16577;SDS011;8401;52.528;13.340;2024-01-15T04:17:33;6.57;;;3.60;;
16577;SDS011;8401;52.528;13.340;2024-01-15T04:19:59;6.73;;;3.83;;
16577;SDS011;8401;52.528;13.340;2024-01-15T04:22:26;9.70;;;4.53;;
16577;SDS011;8401;52.528;13.340;2024-01-15T04:24:52;7.63;;;4.10;;
16577;SDS011;8401;52.528;13.340;2024-01-15T04:27:17;7.13;;;3.77;;
16577;SDS011;8401;52.528;13.340;2024-01-15T04:29:43;10.20;;;4.33;;
16577;SDS011;8401;52.528;13.340;2024-01-15T04:32:09;5.83;;;3.40;;
16577;SDS011;8401;52.528;13.340;2024-01-15T04:34:35;7.97;;;3.97;;
16577;SDS011;8401;52.528;13.340;2024-01-15T04:37:01;6.17;;;3.30;;
16577;SDS011;8401;52.528;13.340;2024-01-15T04:39:26;6.83;;;2.90;;
16577;SDS011;8401;52.528;13.340;2024-01-15T04:41:52;9.27;;;3.87;;
16577;SDS011;8401;52.528;13.340;2024-01-15T04:44:18;6.17;;;3.80;;
16577;SDS011;8401;52.528;13.340;2024-01-15T04:46:44;8.63;;;3.40;;
16577;SDS011;8401;52.528;13.340;2024-01-15T04:49:10;7.47;;;3.70;;
16577;SDS011;8401;52.528;13.340;2024-01-15T04:51:36;5.73;;;2.97;;
16577;SDS011;8401;52.528;13.340;2024-01-15T04:54:02;5.90;;;2.90;;
16577;SDS011;8401;52.528;13.340;2024-01-15T04:56:27;10.10;;;2.93;;
16577;SDS011;8401;52.528;13.340;2024-01-15T04:58:53;7.03;;;2.87;;
16577;SDS011;8401;52.528;13.340;2024-01-15T05:01:19;8.23;;;3.33;;
16577;SDS011;8401;52.528;13.340;2024-01-15T05:03:44;9.93;;;3.27;;
16577;SDS011;8401;52.528;13.340;2024-01-15T05:06:10;7.33;;;2.37;;
16577;SDS011;8401;52.528;13.340;2024-01-15T05:08:35;8.63;;;3.17;;
16577;SDS011;8401;52.528;13.340;2024-01-15T05:11:01;3.40;;;2.30;;
16577;SDS011;8401;52.528;13.340;2024-01-15T05:13:27;6.67;;;2.27;;
16577;SDS011;8401;52.528;13.340;2024-01-15T05:15:53;5.50;;;2.63;;
16577;SDS011;8401;52.528;13.340;2024-01-15T05:18:18;6.73;;;2.30;;
16577;SDS011;8401;52.528;13.340;2024-01-15T05:20:44;6.43;;;2.60;;
16577;SDS011;8401;52.528;13.340;2024-01-15T05:23:10;5.40;;;2.80;;
16577;SDS011;8401;52.528;13.340;2024-01-15T05:25:36;4.33;;;2.23;;
16577;SDS011;8401;52.528;13.340;2024-01-15T05:28:01;8.47;;;2.40;;
16577;SDS011;8401;52.528;13.340;2024-01-15T05:30:27;9.70;;;2.43;;
16577;SDS011;8401;52.528;13.340;2024-01-15T05:32:53;4.10;;;2.27;;
16577;SDS011;8401;52.528;13.340;2024-01-15T05:35:19;6.27;;;2.47;;
16577;SDS011;8401;52.528;13.340;2024-01-15T05:37:45;5.40;;;2.23;;
16577;SDS011;8401;52.528;13.340;2024-01-15T05:40:11;5.90;;;2.03;;
16577;SDS011;8401;52.528;13.340;2024-01-15T05:42:41;6.43;;;1.80;;
16577;SDS011;8401;52.528;13.340;2024-01-15T05:45:07;6.13;;;1.90;;
16577;SDS011;8401;52.528;13.340;2024-01-15T05:47:33;5.20;;;2.50;;
16577;SDS011;8401;52.528;13.340;2024-01-15T05:50:00;3.67;;;1.80;;
16577;SDS011;8401;52.528;13.340;2024-01-15T05:52:26;7.27;;;2.00;;
16577;SDS011;8401;52.528;13.340;2024-01-15T05:54:51;5.90;;;1.90;;
16577;SDS011;8401;52.528;13.340;2024-01-15T05:57:17;6.27;;;1.97;;
16577;SDS011;8401;52.528;13.340;2024-01-15T05:59:44;5.97;;;1.87;;
16577;SDS011;8401;52.528;13.340;2024-01-15T06:02:10;5.60;;;2.67;;
16577;SDS011;8401;52.528;13.340;2024-01-15T06:04:35;6.10;;;1.63;;
16577;SDS011;8401;52.528;13.340;2024-01-15T06:07:01;12.57;;;2.30;;
16577;SDS011;8401;52.528;13.340;2024-01-15T06:09:27;7.83;;;2.23;;
16577;SDS011;8401;52.528;13.340;2024-01-15T06:11:53;5.23;;;1.90;;
16577;SDS011;8401;52.528;13.340;2024-01-15T06:14:19;6.40;;;2.47;;
16577;SDS011;8401;52.528;13.340;2024-01-15T06:16:44;6.53;;;1.50;;
16577;SDS011;8401;52.528;13.340;2024-01-15T06:19:10;2.93;;;1.70;;
16577;SDS011;8401;52.528;13.340;2024-01-15T06:21:36;4.90;;;1.97;;
16577;SDS011;8401;52.528;13.340;2024-01-15T06:24:01;5.37;;;1.67;;
16577;SDS011;8401;52.528;13.340;2024-01-15T06:26:27;3.50;;;1.60;;
16577;SDS011;8401;52.528;13.340;2024-01-15T06:28:53;6.47;;;1.50;;
16577;SDS011;8401;52.528;13.340;2024-01-15T06:31:18;3.53;;;1.60;;
16577;SDS011;8401;52.528;13.340;2024-01-15T06:33:44;4.77;;;1.60;;
16577;SDS011;8401;52.528;13.340;2024-01-15T06:36:13;3.90;;;1.40;;
16577;SDS011;8401;52.528;13.340;2024-01-15T06:38:39;4.10;;;1.33;;
16577;SDS011;8401;52.528;13.340;2024-01-15T06:41:04;4.77;;;1.67;;
16577;SDS011;8401;52.528;13.340;2024-01-15T06:43:30;8.67;;;1.60;;
16577;SDS011;8401;52.528;13.340;2024-01-15T06:45:56;4.43;;;1.80;;
16577;SDS011;8401;52.528;13.340;2024-01-15T06:48:21;3.73;;;1.70;;
16577;SDS011;8401;52.528;13.340;2024-01-15T06:50:47;6.87;;;2.30;;
16577;SDS011;8401;52.528;13.340;2024-01-15T06:53:13;4.70;;;2.17;;
16577;SDS011;8401;52.528;13.340;2024-01-15T06:55:38;4.53;;;1.50;;
16577;SDS011;8401;52.528;13.340;2024-01-15T06:58:04;6.90;;;1.67;;
16577;SDS011;8401;52.528;13.340;2024-01-15T07:00:30;3.33;;;1.43;;
16577;SDS011;8401;52.528;13.340;2024-01-15T07:02:56;3.57;;;1.73;;
16577;SDS011;8401;52.528;13.340;2024-01-15T07:05:22;6.27;;;2.47;;
16577;SDS011;8401;52.528;13.340;2024-01-15T07:07:48;7.97;;;2.33;;
16577;SDS011;8401;52.528;13.340;2024-01-15T07:10:14;4.80;;;1.73;;
16577;SDS011;8401;52.528;13.340;2024-01-15T07:12:41;5.60;;;1.73;;
16577;SDS011;8401;52.528;13.340;2024-01-15T07:15:08;4.57;;;1.70;;
16577;SDS011;8401;52.528;13.340;2024-01-15T07:17:34;6.03;;;1.47;;
16577;SDS011;8401;52.528;13.340;2024-01-15T07:19:59;5.70;;;1.70;;
16577;SDS011;8401;52.528;13.340;2024-01-15T07:22:25;6.90;;;1.67;;
16577;SDS011;8401;52.528;13.340;2024-01-15T07:24:51;5.93;;;1.60;;
16577;SDS011;8401;52.528;13.340;2024-01-15T07:27:16;11.07;;;2.33;;
16577;SDS011;8401;52.528;13.340;2024-01-15T07:29:42;3.53;;;1.50;;
16577;SDS011;8401;52.528;13.340;2024-01-15T07:32:08;5.90;;;1.47;;
16577;SDS011;8401;52.528;13.340;2024-01-15T07:34:34;5.73;;;1.77;;
16577;SDS011;8401;52.528;13.340;2024-01-15T07:37:00;5.87;;;1.20;;
16577;SDS011;8401;52.528;13.340;2024-01-15T07:39:25;4.97;;;1.70;;
16577;SDS011;8401;52.528;13.340;2024-01-15T07:41:53;10.40;;;1.87;;
16577;SDS011;8401;52.528;13.340;2024-01-15T07:44:19;7.30;;;1.77;;
16577;SDS011;8401;52.528;13.340;2024-01-15T07:46:47;6.60;;;1.40;;
16577;SDS011;8401;52.528;13.340;2024-01-15T07:49:13;3.87;;;1.53;;
16577;SDS011;8401;52.528;13.340;2024-01-15T07:51:39;4.50;;;1.53;;
16577;SDS011;8401;52.528;13.340;2024-01-15T07:54:08;4.87;;;1.63;;
16577;SDS011;8401;52.528;13.340;2024-01-15T07:56:34;6.27;;;1.20;;
16577;SDS011;8401;52.528;13.340;2024-01-15T07:59:25;2.00;;;1.20;;
16577;SDS011;8401;52.528;13.340;2024-01-15T08:01:51;8.93;;;1.80;;
16577;SDS011;8401;52.528;13.340;2024-01-15T08:04:17;9.53;;;1.30;;
16577;SDS011;8401;52.528;13.340;2024-01-15T08:06:44;8.13;;;1.80;;
16577;SDS011;8401;52.528;13.340;2024-01-15T08:09:10;6.50;;;1.50;;
16577;SDS011;8401;52.528;13.340;2024-01-15T08:11:35;8.53;;;1.53;;
16577;SDS011;8401;52.528;13.340;2024-01-15T08:14:04;6.53;;;1.57;;
16577;SDS011;8401;52.528;13.340;2024-01-15T08:16:29;6.90;;;1.70;;
16577;SDS011;8401;52.528;13.340;2024-01-15T08:18:55;13.83;;;2.47;;
16577;SDS011;8401;52.528;13.340;2024-01-15T08:21:21;3.70;;;1.43;;
16577;SDS011;8401;52.528;13.340;2024-01-15T08:23:47;3.90;;;1.20;;
16577;SDS011;8401;52.528;13.340;2024-01-15T08:26:13;7.70;;;1.40;;
16577;SDS011;8401;52.528;13.340;2024-01-15T08:28:38;4.97;;;1.50;;
16577;SDS011;8401;52.528;13.340;2024-01-15T08:31:04;5.80;;;1.93;;
16577;SDS011;8401;52.528;13.340;2024-01-15T08:33:30;6.13;;;1.93;;
16577;SDS011;8401;52.528;13.340;2024-01-15T08:35:55;6.50;;;1.70;;
16577;SDS011;8401;52.528;13.340;2024-01-15T08:38:21;5.03;;;1.50;;
16577;SDS011;8401;52.528;13.340;2024-01-15T08:40:46;5.23;;;1.53;;
16577;SDS011;8401;52.528;13.340;2024-01-15T08:43:14;3.90;;;1.33;;
16577;SDS011;8401;52.528;13.340;2024-01-15T08:45:40;3.90;;;1.50;;
16577;SDS011;8401;52.528;13.340;2024-01-15T08:48:06;3.50;;;1.60;;
16577;SDS011;8401;52.528;13.340;2024-01-15T08:50:32;6.43;;;1.73;;
16577;SDS011;8401;52.528;13.340;2024-01-15T08:52:58;9.97;;;1.40;;
16577;SDS011;8401;52.528;13.340;2024-01-15T08:55:24;5.93;;;1.20;;
16577;SDS011;8401;52.528;13.340;2024-01-15T08:57:50;3.70;;;2.10;;
16577;SDS011;8401;52.528;13.340;2024-01-15T09:00:16;4.77;;;2.10;;
16577;SDS011;8401;52.528;13.340;2024-01-15T09:02:42;5.73;;;1.87;;
16577;SDS011;8401;52.528;13.340;2024-01-15T09:05:08;2.93;;;1.30;;
16577;SDS011;8401;52.528;13.340;2024-01-15T09:07:34;5.63;;;1.50;;
16577;SDS011;8401;52.528;13.340;2024-01-15T09:09:59;4.93;;;1.57;;
16577;SDS011;8401;52.528;13.340;2024-01-15T09:12:25;6.77;;;1.60;;
16577;SDS011;8401;52.528;13.340;2024-01-15T09:14:51;5.97;;;1.60;;
16577;SDS011;8401;52.528;13.340;2024-01-15T09:17:18;7.93;;;2.00;;
16577;SDS011;8401;52.528;13.340;2024-01-15T09:19:44;6.07;;;1.73;;
16577;SDS011;8401;52.528;13.340;2024-01-15T09:22:12;10.07;;;2.47;;
16577;SDS011;8401;52.528;13.340;2024-01-15T09:24:39;7.27;;;1.20;;
16577;SDS011;8401;52.528;13.340;2024-01-15T09:27:06;8.57;;;1.50;;
16577;SDS011;8401;52.528;13.340;2024-01-15T09:29:31;5.67;;;1.53;;
16577;SDS011;8401;52.528;13.340;2024-01-15T09:31:57;5.13;;;1.40;;
16577;SDS011;8401;52.528;13.340;2024-01-15T09:34:23;2.77;;;1.40;;
16577;SDS011;8401;52.528;13.340;2024-01-15T09:36:49;8.20;;;1.70;;
16577;SDS011;8401;52.528;13.340;2024-01-15T09:39:14;7.93;;;1.57;;
16577;SDS011;8401;52.528;13.340;2024-01-15T09:41:40;5.30;;;1.60;;
16577;SDS011;8401;52.528;13.340;2024-01-15T09:44:06;8.97;;;1.90;;
16577;SDS011;8401;52.528;13.340;2024-01-15T09:46:33;3.83;;;1.47;;
16577;SDS011;8401;52.528;13.340;2024-01-15T09:48:59;6.63;;;1.67;;
16577;SDS011;8401;52.528;13.340;2024-01-15T09:51:26;6.57;;;1.60;;
16577;SDS011;8401;52.528;13.340;2024-01-15T09:53:56;5.53;;;1.83;;
16577;SDS011;8401;52.528;13.340;2024-01-15T09:56:22;6.60;;;1.57;;
16577;SDS011;8401;52.528;13.340;2024-01-15T09:58:48;3.73;;;1.60;;
16577;SDS011;8401;52.528;13.340;2024-01-15T10:01:16;5.93;;;1.53;;
16577;SDS011;8401;52.528;13.340;2024-01-15T10:03:42;5.47;;;1.40;;
16577;SDS011;8401;52.528;13.340;2024-01-15T10:06:08;6.67;;;1.23;;
16577;SDS011;8401;52.528;13.340;2024-01-15T10:08:36;4.03;;;1.47;;
16577;SDS011;8401;52.528;13.340;2024-01-15T10:11:02;5.43;;;2.20;;
16577;SDS011;8401;52.528;13.340;2024-01-15T10:13:30;5.33;;;1.67;;
16577;SDS011;8401;52.528;13.340;2024-01-15T10:15:56;2.43;;;1.23;;
16577;SDS011;8401;52.528;13.340;2024-01-15T10:18:23;3.20;;;1.30;;
16577;SDS011;8401;52.528;13.340;2024-01-15T10:20:49;2.73;;;1.40;;
16577;SDS011;8401;52.528;13.340;2024-01-15T10:23:14;1.90;;;1.43;;
16577;SDS011;8401;52.528;13.340;2024-01-15T10:25:43;5.47;;;1.30;;
16577;SDS011;8401;52.528;13.340;2024-01-15T10:28:09;5.33;;;2.17;;
16577;SDS011;8401;52.528;13.340;2024-01-15T10:30:35;2.57;;;1.30;;
16577;SDS011;8401;52.528;13.340;2024-01-15T10:33:01;2.77;;;1.40;;
16577;SDS011;8401;52.528;13.340;2024-01-15T10:35:31;2.67;;;0.80;;
16577;SDS011;8401;52.528;13.340;2024-01-15T10:37:59;3.10;;;1.00;;
16577;SDS011;8401;52.528;13.340;2024-01-15T10:40:25;5.73;;;1.33;;
16577;SDS011;8401;52.528;13.340;2024-01-15T10:42:51;3.37;;;1.40;;
16577;SDS011;8401;52.528;13.340;2024-01-15T10:45:17;4.97;;;1.50;;
16577;SDS011;8401;52.528;13.340;2024-01-15T10:47:43;4.73;;;1.10;;
16577;SDS011;8401;52.528;13.340;2024-01-15T10:50:09;3.80;;;1.17;;
16577;SDS011;8401;52.528;13.340;2024-01-15T10:52:39;3.80;;;1.20;;
16577;SDS011;8401;52.528;13.340;2024-01-15T10:55:09;3.10;;;1.00;;
16577;SDS011;8401;52.528;13.340;2024-01-15T10:57:38;2.30;;;1.00;;
16577;SDS011;8401;52.528;13.340;2024-01-15T11:00:04;1.73;;;0.70;;
16577;SDS011;8401;52.528;13.340;2024-01-15T11:02:34;1.90;;;1.20;;
16577;SDS011;8401;52.528;13.340;2024-01-15T11:05:01;2.67;;;1.10;;
16577;SDS011;8401;52.528;13.340;2024-01-15T11:07:29;2.47;;;0.90;;
16577;SDS011;8401;52.528;13.340;2024-01-15T11:09:55;2.13;;;1.03;;
16577;SDS011;8401;52.528;13.340;2024-01-15T11:12:23;2.80;;;1.20;;
16577;SDS011;8401;52.528;13.340;2024-01-15T11:14:50;1.43;;;0.80;;
16577;SDS011;8401;52.528;13.340;2024-01-15T11:17:16;1.03;;;0.77;;
16577;SDS011;8401;52.528;13.340;2024-01-15T11:24:57;1.27;;;0.70;;
16577;SDS011;8401;52.528;13.340;2024-01-15T11:30:10;1.60;;;0.90;;
16577;SDS011;8401;52.528;13.340;2024-01-15T11:32:36;1.13;;;0.87;;
16577;SDS011;8401;52.528;13.340;2024-01-15T11:35:05;1.90;;;1.03;;
16577;SDS011;8401;52.528;13.340;2024-01-15T11:40:21;2.10;;;1.30;;
16577;SDS011;8401;52.528;13.340;2024-01-15T11:42:59;3.30;;;1.20;;
16577;SDS011;8401;52.528;13.340;2024-01-15T11:45:25;3.47;;;1.40;;
16577;SDS011;8401;52.528;13.340;2024-01-15T11:48:00;2.83;;;1.10;;
16577;SDS011;8401;52.528;13.340;2024-01-15T11:50:35;2.83;;;1.23;;
16577;SDS011;8401;52.528;13.340;2024-01-15T11:53:03;3.37;;;1.57;;
16577;SDS011;8401;52.528;13.340;2024-01-15T11:55:36;2.40;;;0.90;;
16577;SDS011;8401;52.528;13.340;2024-01-15T11:58:09;1.73;;;1.03;;
16577;SDS011;8401;52.528;13.340;2024-01-15T12:00:38;2.33;;;1.47;;
16577;SDS011;8401;52.528;13.340;2024-01-15T12:03:12;1.80;;;1.40;;
16577;SDS011;8401;52.528;13.340;2024-01-15T12:05:38;2.43;;;1.60;;
16577;SDS011;8401;52.528;13.340;2024-01-15T12:08:04;1.87;;;1.40;;
16577;SDS011;8401;52.528;13.340;2024-01-15T12:10:35;2.90;;;1.33;;
16577;SDS011;8401;52.528;13.340;2024-01-15T12:13:15;2.70;;;1.37;;
16577;SDS011;8401;52.528;13.340;2024-01-15T12:15:42;1.70;;;0.90;;
16577;SDS011;8401;52.528;13.340;2024-01-15T12:18:09;3.87;;;1.20;;
16577;SDS011;8401;52.528;13.340;2024-01-15T12:20:36;2.80;;;1.50;;
16577;SDS011;8401;52.528;13.340;2024-01-15T12:23:02;2.47;;;1.37;;
16577;SDS011;8401;52.528;13.340;2024-01-15T12:25:29;2.20;;;1.23;;
16577;SDS011;8401;52.528;13.340;2024-01-15T12:27:55;2.00;;;1.30;;
16577;SDS011;8401;52.528;13.340;2024-01-15T12:30:22;3.03;;;1.60;;
16577;SDS011;8401;52.528;13.340;2024-01-15T12:32:47;2.23;;;1.00;;
16577;SDS011;8401;52.528;13.340;2024-01-15T12:35:13;2.80;;;1.27;;
16577;SDS011;8401;52.528;13.340;2024-01-15T12:37:40;2.67;;;1.20;;
16577;SDS011;8401;52.528;13.340;2024-01-15T12:40:07;1.63;;;0.90;;
16577;SDS011;8401;52.528;13.340;2024-01-15T12:42:35;2.17;;;1.07;;
16577;SDS011;8401;52.528;13.340;2024-01-15T12:45:01;1.23;;;1.00;;
16577;SDS011;8401;52.528;13.340;2024-01-15T12:47:29;1.13;;;0.73;;
16577;SDS011;8401;52.528;13.340;2024-01-15T12:49:56;2.60;;;1.13;;
16577;SDS011;8401;52.528;13.340;2024-01-15T12:52:22;1.63;;;0.87;;
16577;SDS011;8401;52.528;13.340;2024-01-15T12:54:49;1.83;;;1.00;;
16577;SDS011;8401;52.528;13.340;2024-01-15T12:57:15;2.83;;;1.50;;
16577;SDS011;8401;52.528;13.340;2024-01-15T12:59:42;1.57;;;1.00;;
16577;SDS011;8401;52.528;13.340;2024-01-15T13:02:13;2.20;;;1.20;;
16577;SDS011;8401;52.528;13.340;2024-01-15T13:04:39;1.40;;;1.00;;
16577;SDS011;8401;52.528;13.340;2024-01-15T13:07:05;1.60;;;0.87;;
16577;SDS011;8401;52.528;13.340;2024-01-15T13:09:32;2.63;;;1.13;;
16577;SDS011;8401;52.528;13.340;2024-01-15T13:11:58;1.80;;;1.37;;
16577;SDS011;8401;52.528;13.340;2024-01-15T13:14:24;3.87;;;1.50;;
16577;SDS011;8401;52.528;13.340;2024-01-15T13:16:49;3.80;;;1.10;;
16577;SDS011;8401;52.528;13.340;2024-01-15T13:19:15;1.60;;;1.20;;
16577;SDS011;8401;52.528;13.340;2024-01-15T13:21:41;3.23;;;1.40;;
16577;SDS011;8401;52.528;13.340;2024-01-15T13:24:06;2.20;;;1.20;;
16577;SDS011;8401;52.528;13.340;2024-01-15T13:26:32;2.43;;;1.30;;
16577;SDS011;8401;52.528;13.340;2024-01-15T13:29:02;2.57;;;1.60;;
16577;SDS011;8401;52.528;13.340;2024-01-15T13:31:29;4.00;;;1.30;;
16577;SDS011;8401;52.528;13.340;2024-01-15T13:33:55;3.60;;;1.30;;
16577;SDS011;8401;52.528;13.340;2024-01-15T13:36:21;2.93;;;1.50;;
16577;SDS011;8401;52.528;13.340;2024-01-15T13:38:53;2.13;;;1.20;;
16577;SDS011;8401;52.528;13.340;2024-01-15T13:41:19;4.03;;;1.83;;
16577;SDS011;8401;52.528;13.340;2024-01-15T13:43:54;2.77;;;1.80;;
16577;SDS011;8401;52.528;13.340;2024-01-15T13:46:22;2.23;;;1.67;;
16577;SDS011;8401;52.528;13.340;2024-01-15T13:48:49;4.47;;;1.70;;
16577;SDS011;8401;52.528;13.340;2024-01-15T13:51:15;3.73;;;1.93;;
16577;SDS011;8401;52.528;13.340;2024-01-15T13:53:40;4.73;;;1.70;;
16577;SDS011;8401;52.528;13.340;2024-01-15T13:56:06;2.13;;;1.13;;
16577;SDS011;8401;52.528;13.340;2024-01-15T13:58:33;4.77;;;1.33;;
16577;SDS011;8401;52.528;13.340;2024-01-15T14:00:59;5.93;;;1.67;;
16577;SDS011;8401;52.528;13.340;2024-01-15T14:03:25;5.97;;;1.50;;
16577;SDS011;8401;52.528;13.340;2024-01-15T14:05:54;4.10;;;1.60;;
16577;SDS011;8401;52.528;13.340;2024-01-15T14:08:19;5.53;;;1.90;;
16577;SDS011;8401;52.528;13.340;2024-01-15T14:10:45;5.23;;;1.20;;
16577;SDS011;8401;52.528;13.340;2024-01-15T14:13:11;2.87;;;1.33;;
16577;SDS011;8401;52.528;13.340;2024-01-15T14:15:36;3.30;;;1.40;;
16577;SDS011;8401;52.528;13.340;2024-01-15T14:18:02;3.57;;;1.17;;
16577;SDS011;8401;52.528;13.340;2024-01-15T14:20:28;3.53;;;2.10;;
16577;SDS011;8401;52.528;13.340;2024-01-15T14:22:54;5.73;;;1.70;;
16577;SDS011;8401;52.528;13.340;2024-01-15T14:25:22;4.30;;;1.60;;
16577;SDS011;8401;52.528;13.340;2024-01-15T14:27:49;5.53;;;1.73;;
16577;SDS011;8401;52.528;13.340;2024-01-15T14:30:15;4.43;;;1.70;;
16577;SDS011;8401;52.528;13.340;2024-01-15T14:32:41;4.30;;;1.20;;
16577;SDS011;8401;52.528;13.340;2024-01-15T14:35:08;2.17;;;1.00;;
16577;SDS011;8401;52.528;13.340;2024-01-15T14:37:38;4.63;;;1.23;;
16577;SDS011;8401;52.528;13.340;2024-01-15T14:40:07;3.13;;;1.07;;
16577;SDS011;8401;52.528;13.340;2024-01-15T14:42:35;2.33;;;1.00;;
16577;SDS011;8401;52.528;13.340;2024-01-15T14:45:01;2.40;;;1.27;;
16577;SDS011;8401;52.528;13.340;2024-01-15T14:47:28;3.60;;;1.40;;
16577;SDS011;8401;52.528;13.340;2024-01-15T14:49:54;2.17;;;1.03;;
16577;SDS011;8401;52.528;13.340;2024-01-15T14:52:21;6.47;;;1.40;;